Time;durP1;ratioP1;P1;durP2;ratioP2;P2;SDS_P1;SDS_P2;PMS_P1;PMS_P2;Temp;Humidity;BMP_temperature;BMP_pressure;BME280_temperature;BME280_humidity;BME280_pressure;Samples;Min_cycle;Max_cycle;Signal;HPM_P1;HPM_P2
2022/04/25 00:02:14;;;;;;;6.70;4.10;;;10.20;99.90;;;;;;5037812;28;20391;-66
2022/04/25 00:04:40;;;;;;;8.63;4.20;;;10.20;99.90;;;;;;5038217;28;20797;-66
2022/04/25 00:07:05;;;;;;;8.53;4.30;;;10.20;99.90;;;;;;5037544;28;20685;-66
2022/04/25 00:09:31;;;;;;;6.57;4.13;;;10.20;99.90;;;;;;5037828;28;20393;-66
2022/04/25 00:11:57;;;;;;;6.18;3.88;;;10.20;99.90;;;;;;5055205;28;20448;-66
2022/04/25 00:14:22;;;;;;;8.60;4.53;;;10.10;99.90;;;;;;5037046;28;20421;-66
2022/04/25 00:16:49;;;;;;;9.73;4.47;;;10.10;99.90;;;;;;5037535;28;20501;-66
2022/04/25 00:19:15;;;;;;;7.38;4.10;;;10.00;99.90;;;;;;5037728;28;20444;-66
2022/04/25 00:21:40;;;;;;;6.90;4.45;;;10.00;99.90;;;;;;5037827;28;20436;-66
2022/04/25 00:24:06;;;;;;;8.07;4.10;;;10.00;99.90;;;;;;5037305;28;20443;-65
2022/04/25 00:26:32;;;;;;;7.10;4.17;;;10.00;99.90;;;;;;5053728;28;20430;-66
2022/04/25 00:28:57;;;;;;;8.05;4.68;;;10.00;99.90;;;;;;5037151;28;20405;-66
2022/04/25 00:31:23;;;;;;;9.70;4.40;;;10.00;99.90;;;;;;5053885;28;20389;-66
2022/04/25 00:33:49;;;;;;;6.60;4.20;;;10.00;99.90;;;;;;5053987;28;20781;-66
2022/04/25 00:36:14;;;;;;;7.10;4.20;;;9.90;99.90;;;;;;5054958;28;20866;-66
2022/04/25 00:38:40;;;;;;;8.38;4.70;;;9.90;99.90;;;;;;5055685;28;20399;-66
2022/04/25 00:41:06;;;;;;;5.90;4.15;;;10.00;99.90;;;;;;5034991;28;20394;-66
2022/04/25 00:43:32;;;;;;;7.60;4.10;;;10.00;99.90;;;;;;5016244;28;20386;-66
2022/04/25 00:45:58;;;;;;;6.87;4.50;;;10.00;99.90;;;;;;5017709;28;20649;-66
2022/04/25 00:48:23;;;;;;;7.70;3.92;;;10.00;99.90;;;;;;5017077;28;20491;-66
2022/04/25 00:50:49;;;;;;;6.63;3.60;;;9.90;99.90;;;;;;5018683;28;20383;-66
2022/04/25 00:53:16;;;;;;;8.18;4.00;;;10.00;99.90;;;;;;5017115;28;20391;-66
2022/04/25 00:55:42;;;;;;;5.40;3.30;;;9.90;99.90;;;;;;5018502;28;20420;-66
2022/04/25 00:58:07;;;;;;;7.50;3.90;;;9.80;99.90;;;;;;5018237;28;20403;-66
2022/04/25 01:00:36;;;;;;;7.73;3.67;;;9.70;99.90;;;;;;5018110;28;20398;-66
2022/04/25 01:03:02;;;;;;;6.50;3.20;;;9.70;99.90;;;;;;5018620;28;20395;-65
2022/04/25 01:05:28;;;;;;;7.93;3.50;;;9.60;99.90;;;;;;5017683;28;20493;-66
2022/04/25 01:07:54;;;;;;;8.53;3.93;;;9.70;99.90;;;;;;5017233;28;20395;-65
2022/04/25 01:10:19;;;;;;;4.90;3.35;;;9.60;99.90;;;;;;5030860;28;20716;-65
2022/04/25 01:12:45;;;;;;;5.27;3.40;;;9.70;99.90;;;;;;5036266;28;20708;-65
2022/04/25 01:15:12;;;;;;;6.10;2.90;;;9.60;99.90;;;;;;5035693;28;20525;-66
2022/04/25 01:17:39;;;;;;;7.53;3.67;;;9.60;99.90;;;;;;5051682;28;20397;-66
2022/04/25 01:20:05;;;;;;;5.00;2.78;;;9.70;99.90;;;;;;5035436;28;20401;-66
2022/04/25 01:22:39;;;;;;;7.78;3.53;;;9.70;99.90;;;;;;5051824;28;20386;-66
2022/04/25 01:27:49;;;;;;;5.45;2.95;;;9.70;99.90;;;;;;5051917;28;20447;-66
2022/04/25 01:30:15;;;;;;;7.65;3.08;;;9.70;99.90;;;;;;5035249;28;20752;-66
2022/04/25 01:32:40;;;;;;;8.05;3.20;;;9.70;99.90;;;;;;5034492;28;20460;-66
2022/04/25 01:35:06;;;;;;;5.93;3.43;;;9.70;99.90;;;;;;5035104;28;20443;-66
2022/04/25 01:37:33;;;;;;;7.15;3.40;;;9.70;99.90;;;;;;5034266;28;20879;-66
2022/04/25 01:39:58;;;;;;;6.32;3.45;;;9.70;99.90;;;;;;5045437;28;20397;-66
2022/04/25 01:42:24;;;;;;;5.38;2.97;;;9.60;99.90;;;;;;5036736;28;20451;-66
2022/04/25 01:44:50;;;;;;;7.67;3.40;;;9.70;99.90;;;;;;5036989;28;20475;-65
2022/04/25 01:47:17;;;;;;;8.07;3.53;;;9.60;99.90;;;;;;5050904;28;20385;-66
2022/04/25 01:49:44;;;;;;;6.93;3.15;;;9.50;99.90;;;;;;5048194;28;20429;-65
2022/04/25 01:52:17;;;;;;;5.57;2.90;;;9.50;99.90;;;;;;5050001;28;20378;-66
2022/04/25 01:54:43;;;;;;;9.52;3.38;;;9.60;99.90;;;;;;5050667;28;20395;-66
2022/04/25 01:57:08;;;;;;;7.43;3.40;;;9.60;99.90;;;;;;5051881;28;20479;-66
2022/04/25 01:59:34;;;;;;;5.63;3.25;;;9.50;99.90;;;;;;5051831;28;20409;-65
2022/04/25 02:02:01;;;;;;;8.80;3.40;;;9.60;99.90;;;;;;5034649;28;20456;-65
2022/04/25 02:04:27;;;;;;;5.15;2.90;;;9.60;99.90;;;;;;5051080;28;20777;-65
2022/04/25 02:06:53;;;;;;;7.28;3.30;;;9.60;99.90;;;;;;5051881;28;20397;-66
2022/04/25 02:09:20;;;;;;;7.63;3.40;;;9.60;99.90;;;;;;5049905;28;20817;-66
2022/04/25 02:11:47;;;;;;;6.30;3.37;;;9.50;99.90;;;;;;5031906;28;20390;-66
2022/04/25 02:14:13;;;;;;;5.72;2.90;;;9.40;99.90;;;;;;5030390;28;20510;-66
2022/04/25 02:16:39;;;;;;;9.55;3.30;;;9.40;99.90;;;;;;5046749;28;20736;-66
2022/04/25 02:19:04;;;;;;;6.30;3.07;;;9.40;99.90;;;;;;5046602;28;20444;-65
2022/04/25 02:21:30;;;;;;;4.57;2.97;;;9.50;99.90;;;;;;5029422;28;20738;-65
2022/04/25 02:23:56;;;;;;;4.70;2.60;;;9.40;99.90;;;;;;5030322;28;20498;-66
2022/04/25 02:26:22;;;;;;;5.50;3.10;;;9.40;99.90;;;;;;5031285;28;20409;-66
2022/04/25 02:28:48;;;;;;;8.68;3.03;;;9.40;99.90;;;;;;5032590;28;20452;-66
2022/04/25 02:31:14;;;;;;;5.88;3.00;;;9.30;99.90;;;;;;5050507;28;20450;-66
2022/04/25 02:33:42;;;;;;;7.53;3.08;;;9.30;99.90;;;;;;5033440;28;20389;-66
2022/04/25 02:36:08;;;;;;;8.15;3.20;;;9.20;99.90;;;;;;5034328;28;20425;-66
2022/04/25 02:38:35;;;;;;;6.50;3.25;;;9.20;99.90;;;;;;5051778;28;20994;-66
2022/04/25 02:41:06;;;;;;;7.93;3.05;;;9.20;99.90;;;;;;5016341;28;20483;-66
2022/04/25 02:43:40;;;;;;;6.60;3.22;;;9.20;99.90;;;;;;5031486;28;20379;-66
2022/04/25 02:46:08;;;;;;;7.37;3.50;;;9.20;99.90;;;;;;5014443;28;20446;-66
2022/04/25 02:48:38;;;;;;;5.65;2.80;;;9.20;99.90;;;;;;5016140;28;20393;-66
2022/04/25 02:51:05;;;;;;;7.40;3.08;;;9.20;99.90;;;;;;5015990;28;20391;-66
2022/04/25 02:53:31;;;;;;;5.28;2.88;;;9.20;99.90;;;;;;5030910;28;20383;-64
2022/04/25 02:55:57;;;;;;;4.78;2.97;;;9.20;99.90;;;;;;5013822;28;20392;-64
2022/04/25 02:58:24;;;;;;;6.90;3.40;;;9.20;99.90;;;;;;5014197;28;20411;-64
2022/04/25 03:00:50;;;;;;;6.68;3.13;;;9.20;99.90;;;;;;5014616;28;20440;-64
2022/04/25 03:03:41;;;;;;;6.00;2.88;;;9.20;99.90;;;;;;5016592;28;20745;-64
2022/04/25 03:06:09;;;;;;;7.40;2.85;;;9.10;99.90;;;;;;5015669;28;20787;-64
2022/04/25 03:08:36;;;;;;;5.80;3.00;;;9.10;99.90;;;;;;5035522;28;20806;-64
2022/04/25 03:11:06;;;;;;;6.10;3.20;;;9.00;99.90;;;;;;5055186;28;20429;-64
2022/04/25 03:13:34;;;;;;;7.05;3.05;;;9.00;99.90;;;;;;5038052;28;20411;-64
2022/04/25 03:16:00;;;;;;;7.00;3.15;;;8.90;99.90;;;;;;5055890;28;20480;-64
2022/04/25 03:18:26;;;;;;;6.25;3.10;;;8.90;99.90;;;;;;5037970;28;20588;-64
2022/04/25 03:20:52;;;;;;;5.90;3.10;;;8.90;99.90;;;;;;5055453;28;20471;-64
2022/04/25 03:23:22;;;;;;;6.38;3.42;;;8.90;99.90;;;;;;5055807;28;20413;-64
2022/04/25 03:25:49;;;;;;;5.68;3.10;;;8.90;99.90;;;;;;5055526;28;20457;-64
2022/04/25 03:28:15;;;;;;;5.97;3.17;;;8.80;99.90;;;;;;5037741;28;20491;-64
2022/04/25 03:30:43;;;;;;;8.35;3.20;;;8.80;99.90;;;;;;5056692;28;20505;-64
2022/04/25 03:33:11;;;;;;;5.60;3.00;;;8.80;99.90;;;;;;5055696;28;20381;-64
2022/04/25 03:35:37;;;;;;;7.22;3.25;;;8.70;99.90;;;;;;5038195;28;20395;-64
2022/04/25 03:38:02;;;;;;;5.30;3.08;;;8.70;99.90;;;;;;5052607;28;20404;-64
2022/04/25 03:40:28;;;;;;;7.00;3.13;;;8.70;99.90;;;;;;5051455;28;20454;-64
2022/04/25 03:42:57;;;;;;;5.90;3.30;;;8.70;99.90;;;;;;5033703;28;20512;-64
2022/04/25 03:45:23;;;;;;;6.32;3.20;;;8.60;99.90;;;;;;5031703;28;20564;-65
2022/04/25 03:47:49;;;;;;;5.30;2.83;;;8.70;99.90;;;;;;5048457;28;20381;-64
2022/04/25 03:50:15;;;;;;;7.15;3.10;;;8.80;99.90;;;;;;5048907;28;20389;-65
2022/04/25 03:52:43;;;;;;;6.05;3.42;;;8.90;99.90;;;;;;5032966;28;20452;-64
2022/04/25 03:57:59;;;;;;;5.65;3.17;;;8.70;99.90;;;;;;5053227;28;20439;-65
2022/04/25 04:00:25;;;;;;;6.35;3.20;;;8.70;99.90;;;;;;5054876;28;20389;-65
2022/04/25 04:02:51;;;;;;;6.70;3.42;;;8.70;99.90;;;;;;5054837;28;20447;-65
2022/04/25 04:05:18;;;;;;;6.28;3.35;;;8.70;99.90;;;;;;5036127;28;20409;-65
2022/04/25 04:07:44;;;;;;;5.75;3.35;;;8.70;99.90;;;;;;5036076;28;20420;-65
2022/04/25 04:10:10;;;;;;;6.07;3.30;;;8.60;99.90;;;;;;5035312;28;20804;-65
2022/04/25 04:12:35;;;;;;;5.13;3.03;;;8.60;99.90;;;;;;5049350;28;20382;-65
2022/04/25 04:15:06;;;;;;;7.27;3.30;;;8.60;99.90;;;;;;5049220;28;20448;-65
2022/04/25 04:17:32;;;;;;;5.70;3.00;;;8.60;99.90;;;;;;5049581;28;20385;-65
2022/04/25 04:19:58;;;;;;;5.85;3.42;;;8.50;99.90;;;;;;5049461;28;20960;-65
2022/04/25 04:22:25;;;;;;;5.43;3.10;;;8.50;99.90;;;;;;5049066;28;20711;-65
2022/04/25 04:24:51;;;;;;;5.65;3.08;;;8.50;99.90;;;;;;5049141;28;20492;-65
2022/04/25 04:27:16;;;;;;;6.20;2.92;;;8.60;99.90;;;;;;5051691;28;20488;-65
2022/04/25 04:29:42;;;;;;;6.25;3.20;;;8.60;99.90;;;;;;5052287;28;20405;-65
2022/04/25 04:32:08;;;;;;;6.30;3.10;;;8.40;99.90;;;;;;5032547;28;20612;-65
2022/04/25 04:34:37;;;;;;;6.57;3.28;;;8.50;99.90;;;;;;5049964;28;20776;-65
2022/04/25 04:37:03;;;;;;;6.18;2.90;;;8.40;99.90;;;;;;5032436;28;20397;-65
2022/04/25 04:39:31;;;;;;;4.97;2.70;;;8.40;99.90;;;;;;5032199;28;20546;-65
2022/04/25 04:41:57;;;;;;;4.97;2.97;;;8.50;99.90;;;;;;5050586;28;20381;-65
2022/04/25 04:44:22;;;;;;;4.65;3.10;;;8.50;99.90;;;;;;5034434;28;20409;-65
2022/04/25 04:46:48;;;;;;;6.47;3.07;;;8.50;99.90;;;;;;5049950;28;20398;-65
2022/04/25 04:49:15;;;;;;;6.05;3.10;;;8.60;99.90;;;;;;5033085;28;20392;-65
2022/04/25 04:51:41;;;;;;;5.38;3.10;;;8.60;99.90;;;;;;5049564;28;20393;-66
2022/04/25 04:54:06;;;;;;;4.15;2.90;;;8.50;99.90;;;;;;5030525;28;20393;-65
2022/04/25 04:56:32;;;;;;;6.83;3.20;;;8.50;99.90;;;;;;5030868;28;20464;-65
2022/04/25 04:58:58;;;;;;;5.82;2.53;;;8.50;99.90;;;;;;5031093;28;20425;-65
2022/04/25 05:01:26;;;;;;;6.07;3.00;;;8.50;99.90;;;;;;5030868;28;20386;-65
2022/04/25 05:03:52;;;;;;;7.00;3.17;;;8.50;99.90;;;;;;5032751;28;20392;-65
2022/04/25 05:06:18;;;;;;;5.90;3.22;;;8.40;99.90;;;;;;5032415;28;20397;-65
2022/04/25 05:08:43;;;;;;;5.10;2.95;;;8.40;99.90;;;;;;5032133;28;20431;-65
2022/04/25 05:11:10;;;;;;;6.05;2.83;;;8.50;99.90;;;;;;5048909;28;20397;-65
2022/04/25 05:13:36;;;;;;;6.60;3.05;;;8.40;99.90;;;;;;5032948;28;20389;-65
2022/04/25 05:16:03;;;;;;;5.85;2.83;;;8.40;99.90;;;;;;5049494;28;20479;-65
2022/04/25 05:18:32;;;;;;;4.67;2.53;;;8.40;99.90;;;;;;5049441;28;20409;-65
2022/04/25 05:21:00;;;;;;;6.13;3.03;;;8.40;99.90;;;;;;5054542;28;20773;-65
2022/04/25 05:23:27;;;;;;;5.45;2.67;;;8.50;99.90;;;;;;5054264;28;20393;-65
2022/04/25 05:25:54;;;;;;;5.13;2.90;;;8.50;99.90;;;;;;5052917;28;20468;-65
2022/04/25 05:28:22;;;;;;;5.85;3.10;;;8.40;99.90;;;;;;5051062;28;20388;-65
2022/04/25 05:30:49;;;;;;;5.17;2.60;;;8.50;99.90;;;;;;5050683;28;20582;-65
2022/04/25 05:33:19;;;;;;;5.00;2.55;;;8.50;99.90;;;;;;5050894;28;20369;-65
2022/04/25 05:35:47;;;;;;;4.40;2.00;;;8.50;99.90;;;;;;5033010;28;20468;-65
2022/04/25 05:38:14;;;;;;;3.95;2.40;;;8.60;99.90;;;;;;5048922;28;20797;-65
2022/04/25 05:40:42;;;;;;;6.10;2.20;;;8.50;99.90;;;;;;5049887;28;20396;-65
2022/04/25 05:43:09;;;;;;;3.53;2.40;;;8.60;99.90;;;;;;5034670;28;20956;-65
2022/04/25 05:45:36;;;;;;;4.50;2.47;;;8.60;99.90;;;;;;5033146;28;20485;-65
2022/04/25 05:51:58;;;;;;;4.55;2.67;;;8.60;99.90;;;;;;5033576;28;20386;-65
2022/04/25 05:53:37;;;;;;;5.47;2.60;;;8.60;99.90;;;;;;5048763;28;20379;-65
2022/04/25 05:56:05;;;;;;;3.72;2.40;;;8.70;99.90;;;;;;5031537;28;20650;-65
2022/04/25 05:58:30;;;;;;;5.07;2.20;;;8.70;99.90;;;;;;5030497;28;20882;-65
2022/04/25 06:00:57;;;;;;;5.40;2.10;;;8.70;99.90;;;;;;5030176;28;21040;-65
2022/04/25 06:03:24;;;;;;;4.82;2.35;;;8.70;99.90;;;;;;5048773;28;20393;-65
2022/04/25 06:05:52;;;;;;;6.05;2.33;;;8.80;99.90;;;;;;5031725;28;20405;-66
2022/04/25 06:08:19;;;;;;;5.13;2.28;;;8.80;99.90;;;;;;5032780;28;20377;-66
2022/04/25 06:10:44;;;;;;;4.53;2.35;;;8.80;99.90;;;;;;5013768;28;20398;-65
2022/04/25 06:13:13;;;;;;;5.20;2.50;;;8.90;99.90;;;;;;5012621;28;20403;-65
2022/04/25 06:15:40;;;;;;;6.00;2.40;;;8.90;99.90;;;;;;5011579;28;20604;-66
2022/04/25 06:18:06;;;;;;;4.80;2.15;;;8.90;99.90;;;;;;5008940;28;20393;-65
2022/04/25 06:20:32;;;;;;;6.13;2.35;;;9.00;99.90;;;;;;5004847;28;20489;-66
2022/04/25 06:23:00;;;;;;;3.22;2.25;;;9.00;99.90;;;;;;5003805;28;20489;-66
2022/04/25 06:25:27;;;;;;;5.07;2.20;;;8.90;99.90;;;;;;5002712;28;20545;-66
2022/04/25 06:27:53;;;;;;;4.75;1.98;;;8.90;99.90;;;;;;5020745;28;20410;-66
2022/04/25 06:30:23;;;;;;;3.93;2.13;;;9.00;99.90;;;;;;5004347;28;20457;-66
2022/04/25 06:32:50;;;;;;;5.10;2.40;;;9.00;99.90;;;;;;5005768;28;20386;-66
2022/04/25 06:35:15;;;;;;;3.70;2.20;;;9.00;99.90;;;;;;5024584;28;20413;-66
2022/04/25 06:37:41;;;;;;;4.25;2.35;;;9.10;99.90;;;;;;5011031;28;20394;-66
2022/04/25 06:40:08;;;;;;;5.20;2.10;;;9.10;99.90;;;;;;5018772;28;20410;-66
2022/04/25 06:42:33;;;;;;;7.10;2.03;;;9.20;99.90;;;;;;5010073;28;20409;-66
2022/04/25 06:44:59;;;;;;;4.23;1.97;;;9.20;99.90;;;;;;5010255;28;20387;-66
2022/04/25 06:47:24;;;;;;;5.10;2.50;;;9.30;99.90;;;;;;5011000;28;20383;-65
2022/04/25 06:49:52;;;;;;;3.85;2.17;;;9.30;99.90;;;;;;5028298;28;20464;-65
2022/04/25 06:52:17;;;;;;;4.23;2.23;;;9.40;99.90;;;;;;5011324;28;20402;-66
2022/04/25 06:54:43;;;;;;;5.60;2.40;;;9.40;99.90;;;;;;5029597;28;20395;-65
2022/04/25 06:57:09;;;;;;;4.20;2.20;;;9.40;99.90;;;;;;5011745;28;20786;-65
2022/04/25 06:59:34;;;;;;;4.20;2.35;;;9.40;99.90;;;;;;5012326;28;20407;-66
2022/04/25 07:02:00;;;;;;;4.33;2.37;;;9.50;99.90;;;;;;5014137;28;20387;-65
2022/04/25 07:04:26;;;;;;;3.33;2.13;;;9.50;99.90;;;;;;5015520;28;20391;-66
2022/04/25 07:06:51;;;;;;;7.40;2.40;;;9.60;99.90;;;;;;5013165;28;20391;-65
2022/04/25 07:09:17;;;;;;;3.92;2.10;;;9.60;99.90;;;;;;5033499;28;20416;-66
2022/04/25 07:11:44;;;;;;;3.20;2.10;;;9.60;99.90;;;;;;5030718;28;20409;-66
2022/04/25 07:14:14;;;;;;;4.10;2.40;;;9.60;99.90;;;;;;5029418;28;20463;-65
2022/04/25 07:16:41;;;;;;;5.15;2.33;;;9.60;99.90;;;;;;5048237;28;20764;-65
2022/04/25 07:19:07;;;;;;;4.88;2.20;;;9.70;99.90;;;;;;5046922;28;20416;-66
2022/04/25 07:29:48;;;;;;;4.90;2.40;;;9.90;99.90;;;;;;5043303;28;20624;-65
2022/04/25 07:32:17;;;;;;;5.90;2.53;;;10.00;99.90;;;;;;5027547;28;20389;-65
2022/04/25 07:34:43;;;;;;;4.40;1.80;;;10.00;99.90;;;;;;5026390;28;20788;-66
2022/04/25 07:37:10;;;;;;;5.50;2.60;;;10.00;99.90;;;;;;5042848;28;20698;-65
2022/04/25 07:39:35;;;;;;;3.53;1.90;;;10.00;99.90;;;;;;5021957;28;20405;-66
2022/04/25 07:42:01;;;;;;;4.03;2.22;;;10.10;99.90;;;;;;5024595;28;20392;-65
2022/04/25 07:44:27;;;;;;;2.50;1.70;;;10.20;99.90;;;;;;5026408;28;20472;-65
2022/04/25 07:46:53;;;;;;;4.82;2.17;;;10.20;99.90;;;;;;5044493;28;20388;-65
2022/04/25 07:49:19;;;;;;;3.35;2.03;;;10.20;99.90;;;;;;5045079;28;20706;-65
2022/04/25 07:51:45;;;;;;;2.70;1.70;;;10.30;99.90;;;;;;5045683;28;20389;-65
2022/04/25 07:54:11;;;;;;;2.72;2.03;;;10.30;99.90;;;;;;5027353;28;20397;-65
2022/04/25 07:56:38;;;;;;;4.20;2.08;;;10.40;99.90;;;;;;5025677;28;20430;-65
2022/04/25 07:59:05;;;;;;;2.78;2.15;;;10.40;99.90;;;;;;5025498;28;20713;-66
2022/04/25 08:01:32;;;;;;;5.75;2.30;;;10.50;99.90;;;;;;5027550;28;20870;-66
2022/04/25 08:03:57;;;;;;;3.83;2.17;;;10.50;99.90;;;;;;5028387;28;20385;-66
2022/04/25 08:06:23;;;;;;;5.50;2.00;;;10.60;99.90;;;;;;5028266;28;20416;-66
2022/04/25 08:08:50;;;;;;;5.05;2.38;;;10.60;99.90;;;;;;5028463;28;20512;-66
2022/04/25 08:11:16;;;;;;;3.33;1.92;;;10.60;99.90;;;;;;5007881;28;20398;-66
2022/04/25 08:19:10;;;;;;;4.65;2.13;;;10.70;99.90;;;;;;5026259;28;21066;-66
2022/04/25 08:21:39;;;;;;;5.70;2.25;;;10.70;99.90;;;;;;5008375;28;20391;-65
2022/04/25 08:24:04;;;;;;;4.10;2.20;;;10.80;99.90;;;;;;5007764;28;20387;-65
2022/04/25 08:26:30;;;;;;;5.10;1.93;;;10.90;99.90;;;;;;5007345;28;20402;-65
2022/04/25 08:28:56;;;;;;;3.25;1.95;;;11.00;99.90;;;;;;5009826;28;20646;-65
2022/04/25 08:31:23;;;;;;;3.65;2.10;;;11.00;99.90;;;;;;5028847;28;20387;-64
2022/04/25 08:33:50;;;;;;;4.00;2.30;;;11.10;99.90;;;;;;5013054;28;20994;-64
2022/04/25 08:36:16;;;;;;;4.82;2.20;;;11.20;99.90;;;;;;5013335;28;20455;-64
2022/04/25 08:38:43;;;;;;;2.17;1.88;;;11.20;99.90;;;;;;5012573;28;20482;-65
2022/04/25 08:41:17;;;;;;;3.20;2.20;;;11.20;99.90;;;;;;5015634;28;20407;-61
2022/04/25 08:43:44;;;;;;;6.13;2.80;;;11.30;99.90;;;;;;5012546;28;20986;-61
2022/04/25 08:46:11;;;;;;;3.85;2.47;;;11.40;99.90;;;;;;5010953;28;20399;-61
2022/04/25 08:48:37;;;;;;;4.32;2.65;;;11.60;99.90;;;;;;4996612;28;20403;-61
2022/04/25 08:51:05;;;;;;;4.10;2.40;;;11.70;99.90;;;;;;5014122;28;20395;-60
2022/04/25 08:53:35;;;;;;;4.53;3.00;;;11.70;99.90;;;;;;5031790;28;20422;-61
2022/04/25 08:56:07;;;;;;;3.77;2.50;;;11.80;99.90;;;;;;5013807;28;20403;-61
2022/04/25 08:58:39;;;;;;;3.13;2.33;;;11.80;99.90;;;;;;5030495;28;21021;-64
2022/04/25 09:01:06;;;;;;;4.40;2.53;;;11.90;99.90;;;;;;5015057;28;20394;-65
2022/04/25 09:03:33;;;;;;;3.78;2.50;;;11.90;99.90;;;;;;5013973;28;20787;-65
2022/04/25 09:06:00;;;;;;;4.55;2.25;;;11.80;99.90;;;;;;5031495;28;20393;-64
2022/04/25 09:08:25;;;;;;;3.80;2.80;;;11.90;99.90;;;;;;5006982;28;20383;-64
2022/04/25 09:12:09;;;;;;;3.27;2.27;;;11.90;99.90;;;;;;5022645;28;20673;-64
2022/04/25 09:13:37;;;;;;;3.25;2.40;;;11.90;99.90;;;;;;5044182;28;20565;-63
2022/04/25 09:16:04;;;;;;;4.03;2.60;;;12.00;99.90;;;;;;5040395;28;20409;-64
2022/04/25 09:18:30;;;;;;;3.97;2.60;;;12.00;99.90;;;;;;5024574;28;20583;-64
2022/04/25 09:20:58;;;;;;;3.72;2.53;;;12.00;99.90;;;;;;5039342;28;20667;-65
2022/04/25 09:23:23;;;;;;;4.07;2.50;;;12.10;99.90;;;;;;5022376;28;20809;-65
2022/04/25 09:26:11;;;;;;;3.43;2.50;;;12.10;99.90;;;;;;5022257;28;20398;-65
2022/04/25 09:28:50;;;;;;;5.38;2.40;;;12.20;99.90;;;;;;5038937;28;20407;-65
2022/04/25 09:31:17;;;;;;;3.28;2.20;;;12.20;99.90;;;;;;5039833;28;20551;-65
2022/04/25 09:33:43;;;;;;;2.28;2.08;;;12.30;99.90;;;;;;5022129;28;20393;-65
2022/04/25 09:36:11;;;;;;;3.70;2.35;;;12.30;99.90;;;;;;5039903;28;20777;-65
2022/04/25 09:38:40;;;;;;;3.33;2.05;;;12.40;99.90;;;;;;5044791;28;20511;-65
2022/04/25 09:41:13;;;;;;;5.35;2.47;;;12.40;99.90;;;;;;5045890;28;20378;-64
2022/04/25 09:43:42;;;;;;;4.43;2.45;;;12.40;99.90;;;;;;5046370;28;20393;-64
2022/04/25 09:46:17;;;;;;;3.20;2.40;;;12.50;99.90;;;;;;5045536;28;20801;-64
2022/04/25 09:49:04;;;;;;;2.72;1.90;;;12.50;99.90;;;;;;5045912;28;21048;-64
2022/04/25 09:51:31;;;;;;;5.85;2.40;;;12.60;99.90;;;;;;5045339;28;20999;-64
2022/04/25 09:53:57;;;;;;;3.55;2.10;;;12.60;99.90;;;;;;5027997;28;20811;-64
2022/04/25 09:56:29;;;;;;;4.00;2.20;;;12.70;99.90;;;;;;5045593;28;20453;-65
2022/04/25 09:59:05;;;;;;;4.80;2.95;;;12.70;99.90;;;;;;5046542;28;20449;-66
2022/04/25 10:01:37;;;;;;;3.65;2.28;;;12.80;99.90;;;;;;5030025;28;20464;-65
2022/04/25 10:04:28;;;;;;;5.80;2.28;;;13.00;99.90;;;;;;5044365;28;20401;-65
2022/04/25 10:06:56;;;;;;;3.85;2.25;;;13.00;99.90;;;;;;5046573;28;20381;-65
2022/04/25 10:09:27;;;;;;;2.78;1.90;;;13.40;99.90;;;;;;5044919;28;20404;-65
2022/04/25 10:12:00;;;;;;;3.55;1.80;;;13.40;99.90;;;;;;5033975;28;20389;-65
2022/04/25 10:14:27;;;;;;;4.32;1.80;;;13.40;99.90;;;;;;5027271;28;20422;-65
2022/04/25 10:16:59;;;;;;;2.35;1.75;;;13.50;99.90;;;;;;5012956;28;20401;-66
2022/04/25 10:19:27;;;;;;;5.27;2.27;;;13.60;99.90;;;;;;5013023;28;20402;-66
2022/04/25 10:21:55;;;;;;;5.57;2.55;;;13.60;99.90;;;;;;5031355;28;20462;-65
2022/04/25 10:24:24;;;;;;;2.55;1.90;;;13.60;99.90;;;;;;5034095;28;21001;-65
2022/04/25 10:26:53;;;;;;;4.28;2.10;;;13.50;99.90;;;;;;5017000;28;20403;-65
2022/04/25 10:29:28;;;;;;;4.65;2.30;;;13.50;99.90;;;;;;5000081;28;20687;-65
2022/04/25 10:32:04;;;;;;;3.20;2.10;;;13.40;99.90;;;;;;5016001;28;20390;-65
2022/04/25 10:35:12;;;;;;;2.85;1.80;;;13.40;99.90;;;;;;5010732;28;20433;-64
2022/04/25 10:37:39;;;;;;;2.78;1.85;;;13.50;99.90;;;;;;5021755;28;20406;-65
2022/04/25 10:40:07;;;;;;;2.88;2.00;;;13.60;99.90;;;;;;5023023;28;20742;-65
2022/04/25 10:45:54;;;;;;;2.50;1.83;;;13.70;99.90;;;;;;5025857;28;20397;-65
2022/04/25 10:48:19;;;;;;;4.00;2.50;;;13.70;99.90;;;;;;5008058;28;20397;-66
2022/04/25 10:51:35;;;;;;;2.70;1.88;;;13.80;99.90;;;;;;5010167;28;20444;-66
2022/04/25 10:54:02;;;;;;;4.82;1.73;;;13.80;99.90;;;;;;4929482;29;20625;-66
2022/04/25 10:56:32;;;;;;;2.20;2.00;;;13.80;99.90;;;;;;5002033;28;21015;-66
2022/04/25 10:59:23;;;;;;;2.42;2.05;;;13.80;99.90;;;;;;5007704;28;20493;-66
2022/04/25 11:01:50;;;;;;;3.10;1.70;;;13.90;99.90;;;;;;5009416;28;20524;-66
2022/04/25 11:04:17;;;;;;;2.00;1.60;;;13.90;99.90;;;;;;5008169;28;20585;-66
2022/04/25 11:06:43;;;;;;;3.72;1.95;;;13.90;99.90;;;;;;5009048;28;20387;-66
2022/04/25 11:09:09;;;;;;;3.40;2.00;;;14.10;99.90;;;;;;5008446;28;20734;-66
2022/04/25 11:11:51;;;;;;;3.03;2.10;;;14.30;99.90;;;;;;5006770;28;20448;-66
2022/04/25 11:14:17;;;;;;;2.83;1.70;;;14.60;99.90;;;;;;5008930;28;20417;-66
2022/04/25 11:17:03;;;;;;;1.83;1.65;;;15.00;99.90;;;;;;5026439;28;20849;-66
2022/04/25 11:19:45;;;;;;;5.35;2.35;;;15.20;99.90;;;;;;5025366;28;20428;-66
2022/04/25 11:22:31;;;;;;;3.30;2.13;;;15.40;99.90;;;;;;5027185;28;20463;-66
2022/04/25 11:25:17;;;;;;;2.47;1.80;;;15.70;99.90;;;;;;5026975;28;20397;-66
2022/04/25 11:28:09;;;;;;;1.98;1.67;;;16.00;99.90;;;;;;5045276;28;20394;-66
2022/04/25 11:30:35;;;;;;;2.25;1.83;;;16.30;99.90;;;;;;5043057;28;20439;-63
2022/04/25 11:33:05;;;;;;;3.08;1.90;;;16.60;99.90;;;;;;5024846;28;20382;-64
2022/04/25 11:35:31;;;;;;;2.85;1.70;;;16.70;99.90;;;;;;5026019;28;20805;-64
2022/04/25 11:37:58;;;;;;;2.83;2.08;;;17.00;99.90;;;;;;5043161;28;20697;-64
2022/04/25 11:40:24;;;;;;;2.47;2.08;;;17.00;99.90;;;;;;5042580;28;20430;-65
2022/04/25 11:42:50;;;;;;;3.80;2.90;;;17.10;99.90;;;;;;5027543;28;20745;-65
2022/04/25 11:45:16;;;;;;;3.70;2.95;;;17.10;99.90;;;;;;5027154;28;20455;-65
2022/04/25 11:47:41;;;;;;;2.27;2.07;;;17.10;99.90;;;;;;5026670;28;20728;-65
2022/04/25 11:50:11;;;;;;;1.50;1.40;;;17.30;99.90;;;;;;5024380;28;20440;-63
2022/04/25 11:52:51;;;;;;;3.75;1.80;;;17.60;99.90;;;;;;5026021;28;20385;-64
2022/04/25 11:55:19;;;;;;;2.17;1.90;;;17.80;99.90;;;;;;5028831;28;20739;-64
2022/04/25 11:57:45;;;;;;;3.03;1.77;;;17.90;99.90;;;;;;5045577;28;20620;-65
2022/04/25 12:00:19;;;;;;;2.70;1.77;;;18.00;99.90;;;;;;5024786;28;20499;-65
2022/04/25 12:02:46;;;;;;;2.20;2.00;;;18.20;99.90;;;;;;5024050;28;20385;-65
2022/04/25 12:05:13;;;;;;;2.63;1.90;;;18.40;99.90;;;;;;5022760;28;20382;-65
2022/04/25 12:15:34;;;;;;;2.28;2.03;;;18.30;99.90;;;;;;5022019;28;20981;-65
2022/04/25 12:15:58;;;;;;;2.30;1.92;;;18.80;99.90;;;;;;5035095;28;20870;-65
2022/04/25 12:18:26;;;;;;;4.78;1.77;;;19.00;99.90;;;;;;5034210;28;20404;-65
2022/04/25 12:21:08;;;;;;;5.30;2.00;;;18.90;99.90;;;;;;5033542;28;20388;-65
2022/04/25 12:24:00;;;;;;;5.00;2.00;;;18.60;99.90;;;;;;5036877;28;20549;-65
2022/04/25 12:26:27;;;;;;;2.58;1.80;;;18.60;99.90;;;;;;5015834;28;20875;-65
2022/04/25 12:29:00;;;;;;;2.50;1.80;;;18.70;99.90;;;;;;5035914;28;20397;-65
2022/04/25 12:31:26;;;;;;;13.80;2.83;;;18.80;99.90;;;;;;5036893;28;20377;-65
2022/04/25 12:33:53;;;;;;;2.42;1.73;;;18.80;99.90;;;;;;5020741;28;20925;-65
2022/04/25 12:36:24;;;;;;;8.90;2.15;;;19.10;99.90;;;;;;5021809;28;20686;-65
2022/04/25 12:38:50;;;;;;;4.30;2.00;;;19.40;99.90;;;;;;5038472;28;20513;-65
2022/04/25 12:41:35;;;;;;;3.50;2.03;;;19.50;99.90;;;;;;5036707;28;20537;-65
2022/04/25 12:44:23;;;;;;;2.47;1.77;;;19.50;99.90;;;;;;5039904;28;20821;-65
2022/04/25 12:47:04;;;;;;;6.00;2.00;;;19.70;99.90;;;;;;5024600;28;20459;-65
2022/04/25 12:49:37;;;;;;;3.20;1.98;;;19.80;99.90;;;;;;5010973;28;20652;-65
2022/04/25 12:52:09;;;;;;;5.67;2.07;;;19.50;99.90;;;;;;5029330;28;20387;-65
2022/04/25 12:54:41;;;;;;;4.32;2.05;;;19.40;99.90;;;;;;5029741;28;20432;-65
2022/04/25 12:57:17;;;;;;;4.43;2.15;;;19.40;99.90;;;;;;5041893;28;20386;-65
2022/04/25 12:59:58;;;;;;;4.13;1.90;;;19.30;99.90;;;;;;5043409;28;20470;-65
2022/04/25 13:02:37;;;;;;;3.80;1.90;;;19.40;99.90;;;;;;5042778;28;20604;-65
2022/04/25 13:05:10;;;;;;;3.03;2.10;;;19.80;99.90;;;;;;5040633;28;20559;-65
2022/04/25 13:07:40;;;;;;;1.85;1.70;;;20.10;99.90;;;;;;5038950;28;20446;-65
2022/04/25 13:10:14;;;;;;;3.67;1.90;;;20.20;99.90;;;;;;5039713;28;20389;-65
2022/04/25 13:12:41;;;;;;;2.35;1.50;;;20.20;99.90;;;;;;5018445;28;20400;-65
2022/04/25 13:15:09;;;;;;;2.03;1.75;;;20.10;99.90;;;;;;5036260;28;20471;-65
2022/04/25 13:17:36;;;;;;;2.60;1.70;;;20.10;99.90;;;;;;5018999;28;20785;-65
2022/04/25 13:20:13;;;;;;;5.07;2.25;;;20.20;99.90;;;;;;5021900;28;20394;-65
2022/04/25 13:22:44;;;;;;;3.00;1.50;;;20.20;99.90;;;;;;5020581;28;20583;-65
2022/04/25 13:25:11;;;;;;;2.55;1.67;;;20.60;99.90;;;;;;5021460;28;20421;-65
2022/04/25 13:27:37;;;;;;;1.80;1.63;;;20.90;99.90;;;;;;5021734;28;20782;-65
2022/04/25 13:30:05;;;;;;;3.03;1.80;;;20.80;99.90;;;;;;5020868;28;20683;-65
2022/04/25 13:32:32;;;;;;;1.95;1.55;;;20.90;99.90;;;;;;5019519;28;20385;-65